Portada
METAR-TAF:

METAR-TAF

Aeropuertos :

Sanandaj, Irán

latitud: 35-20N, longitud: 047-00E, altitud: 1373 m

Observación

El informe se hizo hace 9 horas y 55 minutos, a las 14:00 UTC
Viento 12 kt del sur-suroeste
Temperatura 3°C
Humedad 65%
Presión 1015 hPa
Visibilidad: 9000 m
Nubes dispersas a una altura de 3500 ft
Cielo nuboso a una altura de 7000 ft

METAR: OICS 241400Z 20012KT 9000 SCT035 BKN070 03/M03 Q1014 A2996 RESN

Hora: 03:25 (23:55 UTC)


TAF: falta

Observaciones y pronósticos meteorológicos de más de 4000 aeropuertos (mensajes METAR y TAF).

Los puntos amarillos y rojos representan las estaciones disponibles.

Ponga el ratón en el punto deseado para ver el nombre de la estación.

Haga clic para ver las observaciones y los pronósticos meteorológicos.

Para cambiar el mapa : haga clic en los botones verdes con una cruz de color negro para hacer un zoom, en el botón verde con un guión para alejar o en las flechas verdes para mapas adyacentes.


METAR-TAF: